createdAt,value
2023-05-10T00:01:09.763Z,99864.81
2023-05-10T00:03:41.200Z,99867.35
2023-05-10T00:06:12.017Z,99866.42
2023-05-10T00:08:42.819Z,99863.69
2023-05-10T00:11:13.538Z,99861.61
2023-05-10T00:13:44.175Z,99858.09
2023-05-10T00:16:14.881Z,99855.91
2023-05-10T00:18:45.664Z,99854.94
2023-05-10T00:21:16.583Z,99857.48
2023-05-10T00:23:47.174Z,99859.29
2023-05-10T00:26:18.311Z,99854.71
2023-05-10T00:28:49.453Z,99851.90
2023-05-10T00:31:20.234Z,99851.20
2023-05-10T00:33:50.839Z,99854.60
2023-05-10T00:36:21.832Z,99848.53
2023-05-10T00:38:52.506Z,99849.30
2023-05-10T00:41:23.217Z,99843.34
2023-05-10T00:43:54.140Z,99840.88
2023-05-10T00:46:25.496Z,99836.48
2023-05-10T00:48:56.759Z,99832.55
2023-05-10T00:51:28.009Z,99829.91
2023-05-10T00:53:59.253Z,99832.45
2023-05-10T00:56:30.937Z,99832.04
2023-05-10T00:59:01.900Z,99829.67
2023-05-10T01:01:32.804Z,99832.00
2023-05-10T01:04:04.170Z,99828.25
2023-05-10T01:06:34.780Z,99830.02
2023-05-10T01:09:05.366Z,99832.13
2023-05-10T01:11:36.777Z,99827.96
2023-05-10T01:14:08.271Z,99829.02
2023-05-10T01:16:41.115Z,99824.16
2023-05-10T01:19:28.363Z,99827.85
2023-05-10T01:22:07.621Z,99833.17
2023-05-10T01:25:15.253Z,99832.09
2023-05-10T01:27:58.894Z,99830.16
2023-05-10T01:31:01.159Z,99824.67
2023-05-10T01:33:37.345Z,99827.52
2023-05-10T01:36:26.965Z,99830.12
2023-05-10T01:39:04.683Z,99825.96
2023-05-10T01:41:42.825Z,99822.70
2023-05-10T01:44:20.111Z,99818.76
2023-05-10T01:46:59.495Z,99815.80
2023-05-10T01:49:34.110Z,99820.23
2023-05-10T01:52:11.427Z,99822.69
2023-05-10T01:54:48.510Z,99817.31
2023-05-10T01:57:22.402Z,99819.81
2023-05-10T01:59:55.179Z,99821.66
2023-05-10T02:02:27.774Z,99818.91
2023-05-10T02:04:58.648Z,99819.66
2023-05-10T02:07:30.787Z,99823.94
2023-05-10T02:10:02.747Z,99819.07
2023-05-10T02:12:37.275Z,99813.02
2023-05-10T02:15:10.782Z,99818.23
2023-05-10T02:17:44.386Z,99815.27
2023-05-10T02:20:18.209Z,99814.33
2023-05-10T02:22:51.316Z,99809.77
2023-05-10T02:25:24.112Z,99807.00
2023-05-10T02:27:56.611Z,99806.47
2023-05-10T02:30:26.492Z,99803.16
2023-05-10T02:32:58.230Z,99807.35
2023-05-10T02:35:30.315Z,99802.70
2023-05-10T02:38:03.108Z,99805.98
2023-05-10T02:40:38.168Z,99802.08
2023-05-10T02:43:11.491Z,99806.44
2023-05-10T02:45:43.814Z,99804.96
2023-05-10T02:48:14.764Z,99801.83
2023-05-10T02:50:52.470Z,99801.19
2023-05-10T02:53:32.871Z,99810.30
2023-05-10T02:56:08.074Z,99804.67
2023-05-10T02:58:38.823Z,99799.33
2023-05-10T03:01:09.850Z,99797.36
2023-05-10T03:03:40.588Z,99804.88
2023-05-10T03:06:12.498Z,99808.29
2023-05-10T03:08:43.378Z,99808.62
2023-05-10T03:11:31.063Z,99807.09
2023-05-10T03:14:13.091Z,99813.83
2023-05-10T03:16:47.880Z,99807.88
2023-05-10T03:19:25.004Z,99806.94
2023-05-10T03:22:00.802Z,99813.67
2023-05-10T03:24:35.221Z,99806.97
2023-05-10T03:27:08.149Z,99809.61
2023-05-10T03:29:40.780Z,99809.14
2023-05-10T03:32:11.864Z,99804.47
2023-05-10T03:34:46.389Z,99804.79
2023-05-10T03:37:17.145Z,99797.66
2023-05-10T03:39:47.769Z,99795.91
2023-05-10T03:42:19.228Z,99786.39
2023-05-10T03:44:50.984Z,99787.95
2023-05-10T03:47:21.611Z,99784.71
2023-05-10T03:49:52.445Z,99792.48
2023-05-10T03:52:23.273Z,99798.00
2023-05-10T03:54:53.912Z,99799.45
2023-05-10T03:57:24.944Z,99801.95
2023-05-10T03:59:55.886Z,99808.49
2023-05-10T04:02:27.896Z,99813.07
2023-05-10T04:04:58.806Z,99814.04
2023-05-10T04:07:30.283Z,99814.20
2023-05-10T04:10:01.117Z,99816.52
2023-05-10T04:12:31.804Z,99813.42
2023-05-10T04:15:02.716Z,99821.47
2023-05-10T04:17:33.590Z,99819.57
2023-05-10T04:20:05.073Z,99818.85
2023-05-10T04:22:35.912Z,99818.79
2023-05-10T04:25:08.189Z,99813.44
2023-05-10T04:27:38.982Z,99811.90
2023-05-10T04:30:11.623Z,99812.11
2023-05-10T04:32:42.405Z,99811.36
2023-05-10T04:35:15.794Z,99813.62
2023-05-10T04:37:46.459Z,99814.10
2023-05-10T04:40:17.729Z,99810.67
2023-05-10T04:42:48.822Z,99808.74
2023-05-10T04:45:19.717Z,99805.45
2023-05-10T04:47:50.413Z,99797.52
2023-05-10T04:50:21.218Z,99793.00
2023-05-10T04:52:53.237Z,99788.59
2023-05-10T04:55:24.205Z,99784.34
2023-05-10T04:57:56.187Z,99787.56
2023-05-10T05:00:27.137Z,99784.09
2023-05-10T05:02:57.859Z,99785.89
2023-05-10T05:05:28.753Z,99781.67
2023-05-10T05:07:59.458Z,99784.86
2023-05-10T05:10:30.171Z,99785.00
2023-05-10T05:13:00.852Z,99783.84
2023-05-10T05:15:32.078Z,99786.52
2023-05-10T05:18:02.888Z,99783.44
2023-05-10T05:20:35.647Z,99779.91
2023-05-10T05:23:06.529Z,99781.77
2023-05-10T05:25:37.719Z,99775.69
2023-05-10T05:28:08.551Z,99781.15
2023-05-10T05:30:39.141Z,99782.88
2023-05-10T05:33:09.846Z,99779.80
2023-05-10T05:35:40.622Z,99777.66
2023-05-10T05:38:11.219Z,99775.77
2023-05-10T05:40:41.957Z,99777.42
2023-05-10T05:43:12.749Z,99774.06
2023-05-10T05:45:43.381Z,99775.27
2023-05-10T05:48:14.193Z,99773.11
2023-05-10T05:50:44.916Z,99768.86
2023-05-10T05:53:15.700Z,99770.32
2023-05-10T05:55:55.240Z,99766.90
2023-05-10T05:58:27.631Z,99777.55
2023-05-10T06:00:58.321Z,99774.39
2023-05-10T06:03:29.132Z,99777.06
2023-05-10T06:05:59.882Z,99782.20
2023-05-10T06:08:30.521Z,99778.98
2023-05-10T06:11:01.266Z,99779.19
2023-05-10T06:13:33.794Z,99780.66
2023-05-10T06:16:05.091Z,99787.56
2023-05-10T06:18:35.867Z,99793.40
2023-05-10T06:21:06.798Z,99789.25
2023-05-10T06:23:37.954Z,99787.51
2023-05-10T06:26:08.785Z,99790.06
2023-05-10T06:28:40.112Z,99799.75
2023-05-10T06:31:12.784Z,99795.63
2023-05-10T06:33:43.430Z,99793.90
2023-05-10T06:36:14.351Z,99794.50
2023-05-10T06:38:45.202Z,99791.86
2023-05-10T06:41:15.874Z,99789.16
2023-05-10T06:43:46.635Z,99793.02
2023-05-10T06:46:17.409Z,99798.61
2023-05-10T06:48:48.230Z,99796.37
2023-05-10T06:51:19.300Z,99798.46
2023-05-10T06:53:49.997Z,99792.55
2023-05-10T06:56:22.498Z,99787.50
2023-05-10T06:58:53.778Z,99790.56
2023-05-10T07:01:24.761Z,99792.70
2023-05-10T07:03:55.738Z,99792.50
2023-05-10T07:06:33.289Z,99795.88
2023-05-10T07:09:04.728Z,99786.33
2023-05-10T07:11:35.420Z,99793.78
2023-05-10T07:14:06.151Z,99795.85
2023-05-10T07:16:37.390Z,99793.27
2023-05-10T07:19:08.302Z,99785.58
2023-05-10T07:21:41.359Z,99790.20
2023-05-10T07:24:12.167Z,99796.17
2023-05-10T07:26:43.035Z,99795.25
2023-05-10T07:29:14.016Z,99788.48
2023-05-10T07:31:44.625Z,99789.79
2023-05-10T07:34:15.400Z,99784.73
2023-05-10T07:36:46.038Z,99786.86
2023-05-10T07:39:26.550Z,99794.78
2023-05-10T07:41:58.193Z,99799.54
2023-05-10T07:44:28.911Z,99800.63
2023-05-10T07:46:59.544Z,99796.98
2023-05-10T07:49:30.191Z,99790.92
2023-05-10T07:52:01.138Z,99790.50
2023-05-10T07:54:31.823Z,99794.40
2023-05-10T07:57:03.513Z,99794.91
2023-05-10T07:59:34.506Z,99794.58
2023-05-10T08:02:05.267Z,99790.54
2023-05-10T08:04:35.970Z,99791.40
2023-05-10T08:07:06.985Z,99791.98
2023-05-10T08:09:37.831Z,99795.27
2023-05-10T08:12:09.514Z,99797.48
2023-05-10T08:14:40.249Z,99793.26
2023-05-10T08:17:11.054Z,99788.91
2023-05-10T08:19:41.640Z,99788.07
2023-05-10T08:22:12.389Z,99790.17
2023-05-10T08:24:43.058Z,99795.97
2023-05-10T08:27:13.687Z,99791.81
2023-05-10T08:29:50.088Z,99790.92
2023-05-10T08:32:21.487Z,99800.77
2023-05-10T08:34:52.154Z,99799.34
2023-05-10T08:37:22.776Z,99801.52
2023-05-10T08:39:53.439Z,99803.04
2023-05-10T08:42:28.062Z,99800.09
2023-05-10T08:44:59.491Z,99803.37
2023-05-10T08:47:31.760Z,99804.36
2023-05-10T08:50:04.763Z,99808.35
2023-05-10T08:52:40.872Z,99810.54
2023-05-10T08:55:12.850Z,99816.97
2023-05-10T08:57:41.878Z,99814.41
2023-05-10T09:00:15.504Z,99816.52
2023-05-10T09:02:47.017Z,99825.78
2023-05-10T09:05:18.899Z,99823.04
2023-05-10T09:07:50.028Z,99829.67
2023-05-10T09:10:21.598Z,99831.02
2023-05-10T09:12:53.374Z,99828.99
2023-05-10T09:15:24.461Z,99831.12
2023-05-10T09:17:56.588Z,99835.41
2023-05-10T09:20:27.912Z,99837.27
2023-05-10T09:22:59.020Z,99830.27
2023-05-10T09:25:29.947Z,99833.77
2023-05-10T09:28:00.713Z,99828.52
2023-05-10T09:30:32.982Z,99831.48
2023-05-10T09:33:04.495Z,99836.92
2023-05-10T09:35:37.100Z,99833.19
2023-05-10T09:38:08.029Z,99837.71
2023-05-10T09:40:38.891Z,99833.84
2023-05-10T09:43:11.901Z,99839.62
2023-05-10T09:45:44.829Z,99838.98
2023-05-10T09:48:15.604Z,99836.10
2023-05-10T09:50:46.415Z,99830.79
2023-05-10T09:53:18.783Z,99836.73
2023-05-10T09:55:51.517Z,99841.62
2023-05-10T09:58:22.134Z,99835.68
2023-05-10T10:00:53.396Z,99835.04
2023-05-10T10:03:25.316Z,99838.52
2023-05-10T10:05:56.982Z,99831.66
2023-05-10T10:08:28.382Z,99836.27
2023-05-10T10:10:59.171Z,99831.36
2023-05-10T10:13:29.773Z,99828.89
2023-05-10T10:16:00.748Z,99831.63
2023-05-10T10:18:32.664Z,99829.63
2023-05-10T10:21:02.010Z,99829.14
2023-05-10T10:23:32.583Z,99829.68
2023-05-10T10:26:04.163Z,99831.37
2023-05-10T10:28:54.067Z,99830.70
2023-05-10T10:31:27.547Z,99828.72
2023-05-10T10:34:07.877Z,99820.98
2023-05-10T10:36:44.341Z,99822.30
2023-05-10T10:39:15.938Z,99824.15
2023-05-10T10:41:54.892Z,99820.41
2023-05-10T10:44:39.009Z,99824.70
2023-05-10T10:47:25.939Z,99832.70
2023-05-10T10:50:07.989Z,99827.09
2023-05-10T10:52:39.945Z,99833.43
2023-05-10T10:55:13.454Z,99831.77
2023-05-10T10:58:01.151Z,99834.44
2023-05-10T11:00:34.122Z,99839.48
2023-05-10T11:03:08.690Z,99838.55
2023-05-10T11:05:44.674Z,99835.30
2023-05-10T11:08:20.983Z,99825.06
2023-05-10T11:11:07.826Z,99833.98
2023-05-10T11:13:42.820Z,99830.88
2023-05-10T11:16:29.749Z,99832.08
2023-05-10T11:19:05.497Z,99835.73
2023-05-10T11:21:46.280Z,99830.88
2023-05-10T11:24:20.002Z,99836.05
2023-05-10T11:26:53.436Z,99833.01
2023-05-10T11:29:24.236Z,99833.05
2023-05-10T11:31:56.280Z,99828.77
2023-05-10T11:34:32.210Z,99831.59
2023-05-10T11:37:03.332Z,99835.45
2023-05-10T11:39:34.605Z,99834.64
2023-05-10T11:42:05.493Z,99832.89
2023-05-10T11:44:36.309Z,99837.45
2023-05-10T11:47:07.361Z,99832.31
2023-05-10T11:49:38.151Z,99834.76
2023-05-10T11:52:09.935Z,99829.23
2023-05-10T11:54:46.688Z,99844.25
2023-05-10T11:57:17.349Z,99837.36
2023-05-10T11:59:48.017Z,99837.32
2023-05-10T12:02:18.911Z,99835.95
2023-05-10T12:04:50.909Z,99836.80
2023-05-10T12:07:21.862Z,99841.33
2023-05-10T12:12:49.116Z,99840.24
2023-05-10T12:15:24.473Z,99840.01
2023-05-10T12:17:55.833Z,99851.40
2023-05-10T12:20:29.502Z,99846.86
2023-05-10T12:23:03.009Z,99844.25
2023-05-10T12:25:36.336Z,99848.76
2023-05-10T12:28:09.469Z,99843.17
2023-05-10T12:30:40.891Z,99855.83
2023-05-10T12:33:17.736Z,99861.08
2023-05-10T12:35:49.764Z,99858.86
2023-05-10T12:38:31.963Z,99850.33
2023-05-10T12:41:04.565Z,99854.57
2023-05-10T12:43:36.782Z,99855.99
2023-05-10T12:46:11.919Z,99853.81
2023-05-10T12:48:44.523Z,99855.23
2023-05-10T12:51:18.115Z,99858.98
2023-05-10T12:53:49.726Z,99859.30
2023-05-10T12:56:21.197Z,99861.35
2023-05-10T12:58:51.894Z,99865.42
2023-05-10T13:01:23.003Z,99862.38
2023-05-10T13:03:53.898Z,99865.36
2023-05-10T13:06:24.646Z,99862.37
2023-05-10T13:08:55.316Z,99872.83
2023-05-10T13:11:26.142Z,99865.31
2023-05-10T13:13:56.904Z,99863.70
2023-05-10T13:16:27.825Z,99859.88
2023-05-10T13:18:59.453Z,99859.61
2023-05-10T13:21:30.369Z,99858.73
2023-05-10T13:24:01.370Z,99863.80
2023-05-10T13:26:32.140Z,99862.79
2023-05-10T13:29:02.697Z,99861.48
2023-05-10T13:31:33.492Z,99860.23
2023-05-10T13:34:04.434Z,99861.42
2023-05-10T13:36:35.095Z,99858.77
2023-05-10T13:39:06.353Z,99858.50
2023-05-10T13:41:37.753Z,99856.19
2023-05-10T13:44:08.623Z,99851.10
2023-05-10T13:46:39.930Z,99851.89
2023-05-10T13:49:11.016Z,99855.31
2023-05-10T13:51:41.747Z,99856.64
2023-05-10T13:54:13.553Z,99854.97
2023-05-10T13:56:46.005Z,99853.54
2023-05-10T13:59:17.213Z,99852.05
2023-05-10T14:01:48.435Z,99857.02
2023-05-10T14:04:19.219Z,99862.17
2023-05-10T14:06:49.883Z,99856.20
2023-05-10T14:09:20.812Z,99861.02
2023-05-10T14:11:52.092Z,99859.59
2023-05-10T14:14:22.880Z,99855.21
2023-05-10T14:16:53.641Z,99854.76
2023-05-10T14:19:24.280Z,99852.71
2023-05-10T14:21:54.897Z,99852.52
2023-05-10T14:24:25.864Z,99849.52
2023-05-10T14:26:56.437Z,99850.83
2023-05-10T14:29:27.096Z,99848.80
2023-05-10T14:31:58.117Z,99845.91
2023-05-10T14:34:28.820Z,99850.42
2023-05-10T14:36:59.637Z,99848.10
2023-05-10T14:39:31.098Z,99853.06
2023-05-10T14:42:01.767Z,99853.30
2023-05-10T14:44:32.533Z,99850.13
2023-05-10T14:47:03.506Z,99851.27
2023-05-10T14:49:34.311Z,99851.23
2023-05-10T14:52:07.140Z,99855.39
2023-05-10T14:54:37.884Z,99854.65
2023-05-10T14:57:08.921Z,99859.96
2023-05-10T14:59:40.326Z,99855.63
2023-05-10T15:02:12.489Z,99857.74
2023-05-10T15:04:44.600Z,99857.45
2023-05-10T15:07:17.585Z,99856.04
2023-05-10T15:09:48.402Z,99856.11
2023-05-10T15:12:19.280Z,99858.02
2023-05-10T15:14:49.925Z,99862.29
2023-05-10T15:17:20.562Z,99862.25
2023-05-10T15:19:51.480Z,99863.05
2023-05-10T15:22:22.261Z,99863.31
2023-05-10T15:24:53.087Z,99866.97
2023-05-10T15:27:23.793Z,99866.57
2023-05-10T15:29:55.022Z,99873.20
2023-05-10T15:32:25.823Z,99874.30
2023-05-10T15:34:56.525Z,99874.14
2023-05-10T15:37:27.293Z,99874.20
2023-05-10T15:40:04.487Z,99876.63
2023-05-10T15:42:36.438Z,99876.34
2023-05-10T15:45:08.851Z,99879.23
2023-05-10T15:47:40.664Z,99881.96
2023-05-10T15:50:13.393Z,99881.54
2023-05-10T15:52:44.175Z,99885.75
2023-05-10T15:55:15.388Z,99882.05
2023-05-10T15:57:47.018Z,99888.14
2023-05-10T16:00:19.137Z,99885.66
2023-05-10T16:02:48.232Z,99895.84
2023-05-10T16:05:19.667Z,99891.08
2023-05-10T16:07:50.458Z,99893.30
2023-05-10T16:10:21.416Z,99896.14
2023-05-10T16:12:52.199Z,99900.29
2023-05-10T16:15:22.833Z,99901.61
2023-05-10T16:17:53.864Z,99903.50
2023-05-10T16:20:25.262Z,99905.16
2023-05-10T16:22:55.899Z,99907.66
2023-05-10T16:25:26.830Z,99910.67
2023-05-10T16:27:57.579Z,99909.44
2023-05-10T16:30:30.318Z,99901.83
2023-05-10T16:33:02.490Z,99913.80
2023-05-10T16:35:33.512Z,99913.83
2023-05-10T16:38:04.325Z,99915.54
2023-05-10T16:40:35.235Z,99918.76
2023-05-10T16:43:05.970Z,99921.19
2023-05-10T16:45:36.686Z,99921.96
2023-05-10T16:48:08.081Z,99924.23
2023-05-10T16:50:38.797Z,99924.02
2023-05-10T16:53:10.231Z,99927.80
2023-05-10T16:55:40.983Z,99930.80
2023-05-10T16:58:11.907Z,99934.09
2023-05-10T17:00:42.994Z,99933.73
2023-05-10T17:03:13.967Z,99938.19
2023-05-10T17:05:44.888Z,99942.91
2023-05-10T17:08:15.805Z,99945.04
2023-05-10T17:10:46.617Z,99947.39
2023-05-10T17:13:18.565Z,99947.36
2023-05-10T17:15:49.693Z,99945.98
2023-05-10T17:18:20.552Z,99948.37
2023-05-10T17:20:51.725Z,99953.66
2023-05-10T17:23:22.348Z,99955.61
2023-05-10T17:25:52.991Z,99959.25
2023-05-10T17:28:23.644Z,99960.68
2023-05-10T17:30:59.661Z,99958.67
2023-05-10T17:33:30.432Z,99962.34
2023-05-10T17:36:01.245Z,99967.46
2023-05-10T17:38:32.116Z,99970.38
2023-05-10T17:41:02.993Z,99973.46
2023-05-10T17:43:33.675Z,99975.30
2023-05-10T17:46:04.667Z,99977.06
2023-05-10T17:48:36.906Z,99977.02
2023-05-10T17:51:06.565Z,99980.14
2023-05-10T17:53:37.329Z,99976.98
2023-05-10T17:56:09.614Z,99976.60
2023-05-10T17:58:40.306Z,99974.27
2023-05-10T18:01:11.380Z,99980.09
2023-05-10T18:03:42.286Z,99982.45
2023-05-10T18:06:13.184Z,99989.08
2023-05-10T18:08:44.344Z,99993.89
2023-05-10T18:11:15.011Z,99996.58
2023-05-10T18:13:45.717Z,99993.29
2023-05-10T18:16:16.500Z,99998.04
2023-05-10T18:18:47.198Z,99997.88
2023-05-10T18:21:18.233Z,100004.48
2023-05-10T18:23:48.909Z,100008.46
2023-05-10T18:26:19.614Z,100008.56
2023-05-10T18:28:50.333Z,100011.31
2023-05-10T18:31:21.419Z,100012.60
2023-05-10T18:33:53.003Z,100014.19
2023-05-10T18:36:23.761Z,100014.16
2023-05-10T18:38:57.557Z,100013.50
2023-05-10T18:41:28.647Z,100015.83
2023-05-10T18:43:59.308Z,100012.31
2023-05-10T18:46:30.386Z,100018.70
2023-05-10T18:49:02.561Z,100021.27
2023-05-10T18:51:33.301Z,100020.34
2023-05-10T18:54:04.528Z,100020.38
2023-05-10T18:56:35.225Z,100028.63
2023-05-10T18:59:06.044Z,100027.71
2023-05-10T19:01:36.836Z,100031.03
2023-05-10T19:04:08.519Z,100033.66
2023-05-10T19:06:41.551Z,100035.48
2023-05-10T19:09:12.226Z,100035.95
2023-05-10T19:11:43.376Z,100040.92
2023-05-10T19:14:14.123Z,100042.20
2023-05-10T19:16:44.852Z,100044.14
2023-05-10T19:19:15.637Z,100044.67
2023-05-10T19:21:46.246Z,100047.06
2023-05-10T19:24:17.913Z,100048.77
2023-05-10T19:26:49.404Z,100054.61
2023-05-10T19:29:20.018Z,100055.83
2023-05-10T19:31:52.463Z,100057.08
2023-05-10T19:34:23.483Z,100060.45
2023-05-10T19:36:54.499Z,100063.00
2023-05-10T19:39:25.438Z,100065.19
2023-05-10T19:41:56.056Z,100063.58
2023-05-10T19:44:26.795Z,100068.14
2023-05-10T19:46:59.088Z,100068.64
2023-05-10T19:49:30.187Z,100066.79
2023-05-10T19:52:00.899Z,100065.21
2023-05-10T19:54:31.575Z,100065.27
2023-05-10T19:57:02.274Z,100066.09
2023-05-10T19:59:33.036Z,100068.77
2023-05-10T20:02:04.190Z,100067.58
2023-05-10T20:04:35.044Z,100064.23
2023-05-10T20:07:05.638Z,100062.47
2023-05-10T20:09:36.268Z,100068.23
2023-05-10T20:12:07.077Z,100066.48
2023-05-10T20:14:37.785Z,100070.05
2023-05-10T20:17:08.995Z,100069.14
2023-05-10T20:19:39.864Z,100071.36
2023-05-10T20:22:11.017Z,100070.97
2023-05-10T20:24:41.644Z,100072.09
2023-05-10T20:27:12.351Z,100070.58
2023-05-10T20:29:43.245Z,100072.55
2023-05-10T20:32:14.075Z,100074.02
2023-05-10T20:34:44.958Z,100076.65
2023-05-10T20:37:15.588Z,100071.43
2023-05-10T20:39:48.401Z,100072.74
2023-05-10T20:42:20.618Z,100067.48
2023-05-10T20:44:51.751Z,100069.15
2023-05-10T20:47:24.054Z,100065.34
2023-05-10T20:49:53.173Z,100071.23
2023-05-10T20:52:24.655Z,100074.52
2023-05-10T20:54:55.589Z,100075.51
2023-05-10T20:57:26.287Z,100073.73
2023-05-10T20:59:57.564Z,100075.25
2023-05-10T21:02:28.265Z,100074.83
2023-05-10T21:04:59.103Z,100077.19
2023-05-10T21:07:32.290Z,100079.11
2023-05-10T21:10:03.226Z,100075.35
2023-05-10T21:12:34.420Z,100076.16
2023-05-10T21:15:07.351Z,100079.81
2023-05-10T21:17:38.111Z,100076.79
2023-05-10T21:20:11.213Z,100077.73
2023-05-10T21:22:41.933Z,100077.05
2023-05-10T21:25:13.636Z,100082.91
2023-05-10T21:27:44.254Z,100080.36
2023-05-10T21:30:15.845Z,100078.01
2023-05-10T21:32:46.997Z,100076.20
2023-05-10T21:35:17.667Z,100086.66
2023-05-10T21:37:48.354Z,100090.62
2023-05-10T21:40:19.866Z,100089.83
2023-05-10T21:42:50.931Z,100092.85
2023-05-10T21:45:22.557Z,100091.39
2023-05-10T21:47:53.131Z,100091.10
2023-05-10T21:50:23.975Z,100089.73
2023-05-10T21:52:54.596Z,100094.20
2023-05-10T21:55:25.553Z,100091.64
2023-05-10T21:57:56.288Z,100092.61
2023-05-10T22:00:27.005Z,100095.10
2023-05-10T22:02:57.726Z,100097.50
2023-05-10T22:05:28.642Z,100101.09
2023-05-10T22:07:59.386Z,100094.96
2023-05-10T22:10:30.078Z,100095.58
2023-05-10T22:13:00.823Z,100100.96
2023-05-10T22:15:34.220Z,100098.46
2023-05-10T22:18:06.949Z,100099.92
2023-05-10T22:20:37.814Z,100102.80
2023-05-10T22:23:08.443Z,100103.52
2023-05-10T22:25:39.084Z,100105.09
2023-05-10T22:28:09.711Z,100108.14
2023-05-10T22:30:40.345Z,100104.92
2023-05-10T22:33:11.054Z,100107.35
2023-05-10T22:35:41.729Z,100106.05
2023-05-10T22:38:12.708Z,100109.84
2023-05-10T22:40:44.035Z,100110.95
2023-05-10T22:43:14.691Z,100109.09
2023-05-10T22:45:45.775Z,100105.02
2023-05-10T22:48:17.153Z,100101.71
2023-05-10T22:50:47.757Z,100108.17
2023-05-10T22:53:18.365Z,100109.45
2023-05-10T22:55:49.253Z,100106.88
2023-05-10T22:58:20.618Z,100105.83
2023-05-10T23:00:51.319Z,100110.39
2023-05-10T23:03:22.176Z,100112.95
2023-05-10T23:05:52.906Z,100110.45
2023-05-10T23:08:23.805Z,100114.54
2023-05-10T23:10:54.478Z,100115.89
2023-05-10T23:13:25.128Z,100114.60
2023-05-10T23:15:55.894Z,100117.67
2023-05-10T23:18:26.754Z,100117.29
2023-05-10T23:20:57.592Z,100115.96
2023-05-10T23:23:28.272Z,100113.73
2023-05-10T23:25:59.057Z,100114.23
2023-05-10T23:28:29.771Z,100115.92
2023-05-10T23:31:00.830Z,100116.77
2023-05-10T23:33:31.979Z,100118.18
2023-05-10T23:36:02.838Z,100118.81
2023-05-10T23:38:33.467Z,100125.35
2023-05-10T23:41:04.559Z,100124.17
2023-05-10T23:43:35.304Z,100126.59
2023-05-10T23:46:06.674Z,100119.69
2023-05-10T23:48:37.369Z,100126.27
2023-05-10T23:51:08.423Z,100120.48
2023-05-10T23:53:39.105Z,100121.45
2023-05-10T23:56:09.823Z,100116.66
2023-05-10T23:58:40.425Z,100115.10
